Altoona, Florida
Current Conditions -  °F | °C
As of 9:53 AM on Thursday 23 Oct 2014 (Local Time) from KLEE Reporting Station
Clear Clear  
Wind Chill: 69°   Ceiling: Unl
Heat Index: 69°   Visibility: 10mi
Dew Point: 56°   Wind: 9mph
Humidity: 63%   Direction: 30°NNE
Pressure: 30.03"   Gusts: NA
Location:  28.97°N, 81.65°W
Report Text: KLEE 231353Z 03008KT 10SM CLR 21/13 A3003 RMK AO2 SLP169 T02060133
Loading
Personal Weather Stations






























Interactive Weather Map
Tropical Storm Tracking
New forecast layout! Learn more

10-Day Weather Forecast

Advertisements
Track Severe Weather on mobile